sensor_id;sensor_type;location;lat;lon;timestamp;P1;durP1;ratioP1;P2;durP2;ratioP2
64037;SDS011;54641;50.168;8.492;2023-04-24T00:02:08;3.60;;;1.90;;
64037;SDS011;54641;50.168;8.492;2023-04-24T00:05:09;4.20;;;1.30;;
64037;SDS011;54641;50.168;8.492;2023-04-24T00:07:54;4.00;;;1.50;;
64037;SDS011;54641;50.168;8.492;2023-04-24T00:14:30;6.60;;;2.80;;
64037;SDS011;54641;50.168;8.492;2023-04-24T00:17:33;4.70;;;1.80;;
64037;SDS011;54641;50.168;8.492;2023-04-24T00:20:27;3.80;;;1.60;;
64037;SDS011;54641;50.168;8.492;2023-04-24T00:26:47;2.90;;;1.50;;
64037;SDS011;54641;50.168;8.492;2023-04-24T00:29:53;2.90;;;1.40;;
64037;SDS011;54641;50.168;8.492;2023-04-24T00:32:47;2.40;;;1.50;;
64037;SDS011;54641;50.168;8.492;2023-04-24T00:35:48;4.10;;;1.80;;
64037;SDS011;54641;50.168;8.492;2023-04-24T00:38:37;3.00;;;1.60;;
64037;SDS011;54641;50.168;8.492;2023-04-24T00:49:18;2.90;;;1.60;;
64037;SDS011;54641;50.168;8.492;2023-04-24T00:55:53;3.20;;;1.60;;
64037;SDS011;54641;50.168;8.492;2023-04-24T00:59:01;2.00;;;1.20;;
64037;SDS011;54641;50.168;8.492;2023-04-24T01:02:38;2.40;;;1.40;;
64037;SDS011;54641;50.168;8.492;2023-04-24T01:15:55;2.00;;;1.20;;
64037;SDS011;54641;50.168;8.492;2023-04-24T01:32:32;4.20;;;2.20;;
64037;SDS011;54641;50.168;8.492;2023-04-24T01:38:47;2.30;;;1.60;;
64037;SDS011;54641;50.168;8.492;2023-04-24T01:47:58;3.40;;;1.60;;
64037;SDS011;54641;50.168;8.492;2023-04-24T01:51:02;4.20;;;1.60;;
64037;SDS011;54641;50.168;8.492;2023-04-24T02:00:54;6.40;;;2.10;;
64037;SDS011;54641;50.168;8.492;2023-04-24T02:07:25;3.40;;;1.80;;
64037;SDS011;54641;50.168;8.492;2023-04-24T02:17:18;3.00;;;1.80;;
64037;SDS011;54641;50.168;8.492;2023-04-24T02:31:18;4.00;;;2.10;;
64037;SDS011;54641;50.168;8.492;2023-04-24T02:38:08;3.90;;;2.60;;
64037;SDS011;54641;50.168;8.492;2023-04-24T02:41:23;5.20;;;2.20;;
64037;SDS011;54641;50.168;8.492;2023-04-24T02:44:42;5.90;;;2.20;;
64037;SDS011;54641;50.168;8.492;2023-04-24T03:06:49;2.50;;;1.50;;
64037;SDS011;54641;50.168;8.492;2023-04-24T03:09:30;2.20;;;1.40;;
64037;SDS011;54641;50.168;8.492;2023-04-24T03:16:32;2.00;;;1.20;;
64037;SDS011;54641;50.168;8.492;2023-04-24T03:19:32;1.80;;;1.10;;
64037;SDS011;54641;50.168;8.492;2023-04-24T03:26:30;2.40;;;1.60;;
64037;SDS011;54641;50.168;8.492;2023-04-24T03:29:44;1.90;;;1.20;;
64037;SDS011;54641;50.168;8.492;2023-04-24T03:37:17;2.50;;;1.60;;
64037;SDS011;54641;50.168;8.492;2023-04-24T03:40:28;4.70;;;1.70;;
64037;SDS011;54641;50.168;8.492;2023-04-24T03:43:42;3.10;;;1.60;;
64037;SDS011;54641;50.168;8.492;2023-04-24T03:47:15;2.30;;;1.30;;
64037;SDS011;54641;50.168;8.492;2023-04-24T03:54:02;3.00;;;1.70;;
64037;SDS011;54641;50.168;8.492;2023-04-24T04:08:06;2.70;;;1.50;;
64037;SDS011;54641;50.168;8.492;2023-04-24T04:22:04;2.90;;;1.90;;
64037;SDS011;54641;50.168;8.492;2023-04-24T04:24:53;3.30;;;1.60;;
64037;SDS011;54641;50.168;8.492;2023-04-24T04:28:29;2.60;;;1.70;;
64037;SDS011;54641;50.168;8.492;2023-04-24T04:45:41;3.10;;;1.40;;
64037;SDS011;54641;50.168;8.492;2023-04-24T04:59:14;2.60;;;1.70;;
64037;SDS011;54641;50.168;8.492;2023-04-24T05:05:25;3.10;;;1.70;;
64037;SDS011;54641;50.168;8.492;2023-04-24T05:08:18;4.50;;;2.20;;
64037;SDS011;54641;50.168;8.492;2023-04-24T05:24:48;2.40;;;1.80;;
64037;SDS011;54641;50.168;8.492;2023-04-24T05:50:46;6.20;;;3.10;;
64037;SDS011;54641;50.168;8.492;2023-04-24T05:53:56;4.60;;;2.50;;
64037;SDS011;54641;50.168;8.492;2023-04-24T05:56:53;3.80;;;2.70;;
64037;SDS011;54641;50.168;8.492;2023-04-24T06:03:16;4.40;;;2.40;;
64037;SDS011;54641;50.168;8.492;2023-04-24T06:06:07;5.40;;;2.60;;
64037;SDS011;54641;50.168;8.492;2023-04-24T06:12:29;4.70;;;3.50;;
64037;SDS011;54641;50.168;8.492;2023-04-24T06:16:01;4.60;;;3.10;;
64037;SDS011;54641;50.168;8.492;2023-04-24T06:39:10;5.10;;;3.60;;
64037;SDS011;54641;50.168;8.492;2023-04-24T06:41:59;7.00;;;3.60;;
64037;SDS011;54641;50.168;8.492;2023-04-24T06:44:45;5.50;;;3.60;;
64037;SDS011;54641;50.168;8.492;2023-04-24T06:47:32;7.40;;;4.10;;
64037;SDS011;54641;50.168;8.492;2023-04-24T06:50:14;5.30;;;3.80;;
64037;SDS011;54641;50.168;8.492;2023-04-24T06:53:05;5.70;;;3.40;;
64037;SDS011;54641;50.168;8.492;2023-04-24T06:59:07;7.20;;;4.40;;
64037;SDS011;54641;50.168;8.492;2023-04-24T07:08:41;5.10;;;3.00;;
64037;SDS011;54641;50.168;8.492;2023-04-24T07:12:07;6.10;;;3.70;;
64037;SDS011;54641;50.168;8.492;2023-04-24T07:22:52;4.80;;;2.70;;
64037;SDS011;54641;50.168;8.492;2023-04-24T07:30:19;3.30;;;2.20;;
64037;SDS011;54641;50.168;8.492;2023-04-24T07:33:18;5.10;;;3.00;;
64037;SDS011;54641;50.168;8.492;2023-04-24T07:36:35;4.50;;;2.90;;
64037;SDS011;54641;50.168;8.492;2023-04-24T07:39:31;4.00;;;2.80;;
64037;SDS011;54641;50.168;8.492;2023-04-24T07:42:06;4.80;;;3.30;;
64037;SDS011;54641;50.168;8.492;2023-04-24T07:44:39;3.70;;;2.70;;
64037;SDS011;54641;50.168;8.492;2023-04-24T07:47:17;4.40;;;3.00;;
64037;SDS011;54641;50.168;8.492;2023-04-24T07:49:50;4.40;;;3.40;;
64037;SDS011;54641;50.168;8.492;2023-04-24T07:52:23;4.20;;;2.70;;
64037;SDS011;54641;50.168;8.492;2023-04-24T07:54:55;4.80;;;3.00;;
64037;SDS011;54641;50.168;8.492;2023-04-24T07:57:30;3.50;;;3.00;;
64037;SDS011;54641;50.168;8.492;2023-04-24T08:00:04;3.40;;;2.80;;
64037;SDS011;54641;50.168;8.492;2023-04-24T08:02:43;4.20;;;3.10;;
64037;SDS011;54641;50.168;8.492;2023-04-24T08:05:16;5.50;;;3.40;;
64037;SDS011;54641;50.168;8.492;2023-04-24T08:07:49;3.50;;;2.40;;
64037;SDS011;54641;50.168;8.492;2023-04-24T08:10:22;3.20;;;2.60;;
64037;SDS011;54641;50.168;8.492;2023-04-24T08:12:54;4.90;;;2.80;;
64037;SDS011;54641;50.168;8.492;2023-04-24T08:15:26;6.30;;;3.10;;
64037;SDS011;54641;50.168;8.492;2023-04-24T08:18:02;4.90;;;2.70;;
64037;SDS011;54641;50.168;8.492;2023-04-24T08:20:35;4.60;;;2.50;;
64037;SDS011;54641;50.168;8.492;2023-04-24T08:23:07;4.60;;;2.60;;
64037;SDS011;54641;50.168;8.492;2023-04-24T08:25:40;4.40;;;3.20;;
64037;SDS011;54641;50.168;8.492;2023-04-24T08:28:17;3.60;;;2.80;;
64037;SDS011;54641;50.168;8.492;2023-04-24T08:30:50;4.00;;;2.90;;
64037;SDS011;54641;50.168;8.492;2023-04-24T08:33:24;4.30;;;2.80;;
64037;SDS011;54641;50.168;8.492;2023-04-24T08:36:03;3.80;;;2.70;;
64037;SDS011;54641;50.168;8.492;2023-04-24T08:38:39;4.90;;;3.00;;
64037;SDS011;54641;50.168;8.492;2023-04-24T08:41:11;4.50;;;3.60;;
64037;SDS011;54641;50.168;8.492;2023-04-24T08:43:47;6.10;;;3.20;;
64037;SDS011;54641;50.168;8.492;2023-04-24T08:46:20;7.00;;;4.00;;
64037;SDS011;54641;50.168;8.492;2023-04-24T08:48:52;4.40;;;3.20;;
64037;SDS011;54641;50.168;8.492;2023-04-24T08:51:23;3.90;;;2.80;;
64037;SDS011;54641;50.168;8.492;2023-04-24T08:56:26;5.30;;;3.20;;
64037;SDS011;54641;50.168;8.492;2023-04-24T08:59:01;4.20;;;2.60;;
64037;SDS011;54641;50.168;8.492;2023-04-24T09:01:35;4.00;;;2.70;;
64037;SDS011;54641;50.168;8.492;2023-04-24T09:04:12;4.20;;;2.70;;
64037;SDS011;54641;50.168;8.492;2023-04-24T09:06:46;4.10;;;2.90;;
64037;SDS011;54641;50.168;8.492;2023-04-24T09:09:18;6.00;;;3.40;;
64037;SDS011;54641;50.168;8.492;2023-04-24T09:11:51;4.80;;;3.40;;
64037;SDS011;54641;50.168;8.492;2023-04-24T09:14:23;4.20;;;3.10;;
64037;SDS011;54641;50.168;8.492;2023-04-24T09:16:56;3.20;;;2.40;;
64037;SDS011;54641;50.168;8.492;2023-04-24T09:19:29;5.30;;;3.20;;
64037;SDS011;54641;50.168;8.492;2023-04-24T09:22:01;5.80;;;3.20;;
64037;SDS011;54641;50.168;8.492;2023-04-24T09:24:36;4.80;;;3.20;;
64037;SDS011;54641;50.168;8.492;2023-04-24T09:27:08;4.20;;;2.30;;
64037;SDS011;54641;50.168;8.492;2023-04-24T09:29:54;4.90;;;2.90;;
64037;SDS011;54641;50.168;8.492;2023-04-24T09:32:26;4.50;;;2.90;;
64037;SDS011;54641;50.168;8.492;2023-04-24T09:35:08;5.90;;;3.30;;
64037;SDS011;54641;50.168;8.492;2023-04-24T09:37:42;4.90;;;3.10;;
64037;SDS011;54641;50.168;8.492;2023-04-24T09:40:18;4.10;;;3.10;;
64037;SDS011;54641;50.168;8.492;2023-04-24T09:42:56;5.60;;;2.90;;
64037;SDS011;54641;50.168;8.492;2023-04-24T09:45:36;4.50;;;3.00;;
64037;SDS011;54641;50.168;8.492;2023-04-24T09:48:10;4.00;;;2.90;;
64037;SDS011;54641;50.168;8.492;2023-04-24T09:50:42;3.40;;;2.70;;
64037;SDS011;54641;50.168;8.492;2023-04-24T09:53:18;3.80;;;2.40;;
64037;SDS011;54641;50.168;8.492;2023-04-24T09:55:55;3.90;;;2.60;;
64037;SDS011;54641;50.168;8.492;2023-04-24T09:58:29;3.50;;;2.60;;
64037;SDS011;54641;50.168;8.492;2023-04-24T10:01:01;3.60;;;2.40;;
64037;SDS011;54641;50.168;8.492;2023-04-24T10:03:34;3.20;;;2.30;;
64037;SDS011;54641;50.168;8.492;2023-04-24T10:06:08;4.20;;;2.90;;
64037;SDS011;54641;50.168;8.492;2023-04-24T10:08:44;4.40;;;2.70;;
64037;SDS011;54641;50.168;8.492;2023-04-24T10:13:47;3.80;;;2.60;;
64037;SDS011;54641;50.168;8.492;2023-04-24T10:16:20;4.60;;;2.70;;
64037;SDS011;54641;50.168;8.492;2023-04-24T10:18:55;4.50;;;2.40;;
64037;SDS011;54641;50.168;8.492;2023-04-24T10:21:29;3.80;;;2.50;;
64037;SDS011;54641;50.168;8.492;2023-04-24T10:24:17;6.10;;;2.60;;
64037;SDS011;54641;50.168;8.492;2023-04-24T10:29:20;3.30;;;2.30;;
64037;SDS011;54641;50.168;8.492;2023-04-24T10:32:00;5.80;;;2.50;;
64037;SDS011;54641;50.168;8.492;2023-04-24T10:34:32;4.50;;;2.80;;
64037;SDS011;54641;50.168;8.492;2023-04-24T10:37:06;5.30;;;3.70;;
64037;SDS011;54641;50.168;8.492;2023-04-24T10:39:38;6.50;;;3.20;;
64037;SDS011;54641;50.168;8.492;2023-04-24T10:42:25;5.00;;;2.50;;
64037;SDS011;54641;50.168;8.492;2023-04-24T10:44:58;4.10;;;2.70;;
64037;SDS011;54641;50.168;8.492;2023-04-24T10:47:52;2.80;;;1.70;;
64037;SDS011;54641;50.168;8.492;2023-04-24T10:50:44;2.80;;;1.80;;
64037;SDS011;54641;50.168;8.492;2023-04-24T11:04:09;2.60;;;1.50;;
64037;SDS011;54641;50.168;8.492;2023-04-24T11:06:47;3.40;;;1.50;;
64037;SDS011;54641;50.168;8.492;2023-04-24T11:09:34;2.60;;;1.60;;
64037;SDS011;54641;50.168;8.492;2023-04-24T11:25:28;2.20;;;1.50;;
64037;SDS011;54641;50.168;8.492;2023-04-24T11:31:59;2.90;;;1.80;;
64037;SDS011;54641;50.168;8.492;2023-04-24T11:35:16;1.90;;;1.30;;
64037;SDS011;54641;50.168;8.492;2023-04-24T11:44:45;2.70;;;1.90;;
64037;SDS011;54641;50.168;8.492;2023-04-24T11:47:51;3.20;;;1.40;;
64037;SDS011;54641;50.168;8.492;2023-04-24T11:50:35;2.50;;;1.70;;
64037;SDS011;54641;50.168;8.492;2023-04-24T11:53:08;3.30;;;1.90;;
64037;SDS011;54641;50.168;8.492;2023-04-24T11:55:41;2.50;;;1.70;;
64037;SDS011;54641;50.168;8.492;2023-04-24T11:58:18;2.50;;;1.70;;
64037;SDS011;54641;50.168;8.492;2023-04-24T12:07:56;5.00;;;2.20;;
64037;SDS011;54641;50.168;8.492;2023-04-24T12:10:34;4.40;;;2.70;;
64037;SDS011;54641;50.168;8.492;2023-04-24T12:13:04;4.50;;;2.00;;
64037;SDS011;54641;50.168;8.492;2023-04-24T12:15:34;5.00;;;2.50;;
64037;SDS011;54641;50.168;8.492;2023-04-24T12:18:04;4.20;;;2.50;;
64037;SDS011;54641;50.168;8.492;2023-04-24T12:20:35;3.90;;;2.50;;
64037;SDS011;54641;50.168;8.492;2023-04-24T12:23:05;4.20;;;2.00;;
64037;SDS011;54641;50.168;8.492;2023-04-24T12:25:35;4.20;;;2.30;;
64037;SDS011;54641;50.168;8.492;2023-04-24T12:28:10;4.30;;;2.40;;
64037;SDS011;54641;50.168;8.492;2023-04-24T12:30:41;5.20;;;2.20;;
64037;SDS011;54641;50.168;8.492;2023-04-24T12:33:12;3.10;;;2.20;;
64037;SDS011;54641;50.168;8.492;2023-04-24T12:35:47;4.70;;;2.20;;
64037;SDS011;54641;50.168;8.492;2023-04-24T12:38:22;3.60;;;2.10;;
64037;SDS011;54641;50.168;8.492;2023-04-24T12:41:02;3.50;;;2.30;;
64037;SDS011;54641;50.168;8.492;2023-04-24T12:43:33;4.30;;;2.70;;
64037;SDS011;54641;50.168;8.492;2023-04-24T12:46:04;3.90;;;2.60;;
64037;SDS011;54641;50.168;8.492;2023-04-24T12:48:35;4.80;;;2.40;;
64037;SDS011;54641;50.168;8.492;2023-04-24T12:51:05;7.80;;;3.60;;
64037;SDS011;54641;50.168;8.492;2023-04-24T12:53:36;4.40;;;3.10;;
64037;SDS011;54641;50.168;8.492;2023-04-24T12:56:07;6.40;;;3.30;;
64037;SDS011;54641;50.168;8.492;2023-04-24T12:58:37;6.60;;;3.30;;
64037;SDS011;54641;50.168;8.492;2023-04-24T13:01:07;4.20;;;3.40;;
64037;SDS011;54641;50.168;8.492;2023-04-24T13:03:38;3.90;;;2.90;;
64037;SDS011;54641;50.168;8.492;2023-04-24T13:06:09;6.80;;;3.30;;
64037;SDS011;54641;50.168;8.492;2023-04-24T13:08:39;5.20;;;3.70;;
64037;SDS011;54641;50.168;8.492;2023-04-24T13:11:10;5.40;;;3.90;;
64037;SDS011;54641;50.168;8.492;2023-04-24T13:13:41;5.40;;;3.90;;
64037;SDS011;54641;50.168;8.492;2023-04-24T13:16:12;5.60;;;3.50;;
64037;SDS011;54641;50.168;8.492;2023-04-24T13:18:42;4.70;;;3.50;;
64037;SDS011;54641;50.168;8.492;2023-04-24T13:21:13;5.90;;;3.80;;
64037;SDS011;54641;50.168;8.492;2023-04-24T13:23:44;7.30;;;4.20;;
64037;SDS011;54641;50.168;8.492;2023-04-24T13:26:14;5.90;;;3.60;;
64037;SDS011;54641;50.168;8.492;2023-04-24T13:28:51;5.10;;;3.40;;
64037;SDS011;54641;50.168;8.492;2023-04-24T13:31:21;6.70;;;4.20;;
64037;SDS011;54641;50.168;8.492;2023-04-24T13:33:51;4.70;;;3.00;;
64037;SDS011;54641;50.168;8.492;2023-04-24T13:36:24;5.00;;;3.30;;
64037;SDS011;54641;50.168;8.492;2023-04-24T13:39:03;6.90;;;3.80;;
64037;SDS011;54641;50.168;8.492;2023-04-24T13:41:38;5.20;;;3.50;;
64037;SDS011;54641;50.168;8.492;2023-04-24T13:44:08;5.00;;;3.50;;
64037;SDS011;54641;50.168;8.492;2023-04-24T13:46:38;4.80;;;3.50;;
64037;SDS011;54641;50.168;8.492;2023-04-24T13:49:08;5.40;;;3.50;;
64037;SDS011;54641;50.168;8.492;2023-04-24T13:51:39;7.50;;;4.10;;
64037;SDS011;54641;50.168;8.492;2023-04-24T13:54:09;5.50;;;4.00;;
64037;SDS011;54641;50.168;8.492;2023-04-24T13:56:40;5.20;;;4.00;;
64037;SDS011;54641;50.168;8.492;2023-04-24T13:59:11;5.40;;;3.80;;
64037;SDS011;54641;50.168;8.492;2023-04-24T14:01:41;5.40;;;3.50;;
64037;SDS011;54641;50.168;8.492;2023-04-24T14:04:14;6.40;;;3.40;;
64037;SDS011;54641;50.168;8.492;2023-04-24T14:06:47;6.90;;;4.10;;
64037;SDS011;54641;50.168;8.492;2023-04-24T14:09:20;5.00;;;3.80;;
64037;SDS011;54641;50.168;8.492;2023-04-24T14:11:52;5.70;;;3.40;;
64037;SDS011;54641;50.168;8.492;2023-04-24T14:14:24;5.50;;;4.10;;
64037;SDS011;54641;50.168;8.492;2023-04-24T14:16:58;8.30;;;4.60;;
64037;SDS011;54641;50.168;8.492;2023-04-24T14:19:32;6.20;;;3.50;;
64037;SDS011;54641;50.168;8.492;2023-04-24T14:22:04;5.90;;;3.40;;
64037;SDS011;54641;50.168;8.492;2023-04-24T14:24:36;5.30;;;3.90;;
64037;SDS011;54641;50.168;8.492;2023-04-24T14:27:08;5.30;;;3.70;;
64037;SDS011;54641;50.168;8.492;2023-04-24T14:29:39;6.20;;;3.60;;
64037;SDS011;54641;50.168;8.492;2023-04-24T14:32:13;5.20;;;3.80;;
64037;SDS011;54641;50.168;8.492;2023-04-24T14:37:16;7.10;;;3.70;;
64037;SDS011;54641;50.168;8.492;2023-04-24T14:39:49;5.20;;;3.90;;
64037;SDS011;54641;50.168;8.492;2023-04-24T14:42:40;5.10;;;3.50;;
64037;SDS011;54641;50.168;8.492;2023-04-24T14:45:12;5.50;;;3.20;;
64037;SDS011;54641;50.168;8.492;2023-04-24T14:47:44;5.40;;;3.90;;
64037;SDS011;54641;50.168;8.492;2023-04-24T14:50:16;5.40;;;3.50;;
64037;SDS011;54641;50.168;8.492;2023-04-24T14:52:51;5.90;;;3.30;;
64037;SDS011;54641;50.168;8.492;2023-04-24T14:55:22;7.80;;;4.00;;
64037;SDS011;54641;50.168;8.492;2023-04-24T14:57:54;6.20;;;3.80;;
64037;SDS011;54641;50.168;8.492;2023-04-24T15:00:27;5.80;;;3.30;;
64037;SDS011;54641;50.168;8.492;2023-04-24T15:09:15;5.00;;;3.10;;
64037;SDS011;54641;50.168;8.492;2023-04-24T15:11:46;7.10;;;3.50;;
64037;SDS011;54641;50.168;8.492;2023-04-24T15:14:17;8.40;;;3.90;;
64037;SDS011;54641;50.168;8.492;2023-04-24T15:16:48;6.10;;;3.10;;
64037;SDS011;54641;50.168;8.492;2023-04-24T15:19:18;4.80;;;3.00;;
64037;SDS011;54641;50.168;8.492;2023-04-24T15:21:48;6.40;;;3.20;;
64037;SDS011;54641;50.168;8.492;2023-04-24T15:24:19;6.00;;;4.00;;
64037;SDS011;54641;50.168;8.492;2023-04-24T15:26:49;4.70;;;2.90;;
64037;SDS011;54641;50.168;8.492;2023-04-24T15:29:20;4.70;;;3.10;;
64037;SDS011;54641;50.168;8.492;2023-04-24T15:31:50;6.50;;;4.00;;
64037;SDS011;54641;50.168;8.492;2023-04-24T15:34:20;5.70;;;3.80;;
64037;SDS011;54641;50.168;8.492;2023-04-24T15:36:51;5.90;;;3.10;;
64037;SDS011;54641;50.168;8.492;2023-04-24T15:39:23;5.20;;;3.30;;
64037;SDS011;54641;50.168;8.492;2023-04-24T15:41:53;6.00;;;3.70;;
64037;SDS011;54641;50.168;8.492;2023-04-24T15:44:24;6.30;;;3.70;;
64037;SDS011;54641;50.168;8.492;2023-04-24T15:46:54;6.50;;;3.60;;
64037;SDS011;54641;50.168;8.492;2023-04-24T15:49:25;6.00;;;3.70;;
64037;SDS011;54641;50.168;8.492;2023-04-24T15:51:57;6.00;;;3.80;;
64037;SDS011;54641;50.168;8.492;2023-04-24T15:54:28;5.30;;;3.50;;
64037;SDS011;54641;50.168;8.492;2023-04-24T15:56:59;6.20;;;3.70;;
64037;SDS011;54641;50.168;8.492;2023-04-24T15:59:30;5.60;;;3.60;;
64037;SDS011;54641;50.168;8.492;2023-04-24T16:02:01;5.80;;;4.10;;
64037;SDS011;54641;50.168;8.492;2023-04-24T16:04:32;6.20;;;3.80;;
64037;SDS011;54641;50.168;8.492;2023-04-24T16:07:03;7.40;;;4.00;;
64037;SDS011;54641;50.168;8.492;2023-04-24T16:09:33;6.50;;;4.00;;
64037;SDS011;54641;50.168;8.492;2023-04-24T16:12:04;4.50;;;3.70;;
64037;SDS011;54641;50.168;8.492;2023-04-24T16:14:36;6.20;;;3.70;;
64037;SDS011;54641;50.168;8.492;2023-04-24T16:17:07;8.00;;;4.40;;
64037;SDS011;54641;50.168;8.492;2023-04-24T16:19:38;8.80;;;4.20;;
64037;SDS011;54641;50.168;8.492;2023-04-24T16:22:10;8.40;;;3.80;;
64037;SDS011;54641;50.168;8.492;2023-04-24T16:24:40;6.70;;;3.50;;
64037;SDS011;54641;50.168;8.492;2023-04-24T16:29:43;6.70;;;3.50;;
64037;SDS011;54641;50.168;8.492;2023-04-24T16:32:17;6.10;;;3.60;;
64037;SDS011;54641;50.168;8.492;2023-04-24T16:34:48;4.70;;;3.30;;
64037;SDS011;54641;50.168;8.492;2023-04-24T16:37:20;5.80;;;4.00;;
64037;SDS011;54641;50.168;8.492;2023-04-24T16:39:50;5.50;;;3.40;;
64037;SDS011;54641;50.168;8.492;2023-04-24T16:42:22;5.00;;;3.80;;
64037;SDS011;54641;50.168;8.492;2023-04-24T16:45:09;5.00;;;3.80;;
64037;SDS011;54641;50.168;8.492;2023-04-24T16:47:40;6.10;;;3.60;;
64037;SDS011;54641;50.168;8.492;2023-04-24T16:50:12;7.00;;;3.70;;
64037;SDS011;54641;50.168;8.492;2023-04-24T16:52:43;6.70;;;3.80;;
64037;SDS011;54641;50.168;8.492;2023-04-24T16:55:14;6.00;;;3.30;;
64037;SDS011;54641;50.168;8.492;2023-04-24T16:57:44;6.10;;;3.90;;
64037;SDS011;54641;50.168;8.492;2023-04-24T17:00:16;6.30;;;3.60;;
64037;SDS011;54641;50.168;8.492;2023-04-24T17:02:47;8.20;;;4.30;;
64037;SDS011;54641;50.168;8.492;2023-04-24T17:05:18;5.00;;;3.80;;
64037;SDS011;54641;50.168;8.492;2023-04-24T17:07:50;7.40;;;4.70;;
64037;SDS011;54641;50.168;8.492;2023-04-24T17:10:21;6.70;;;4.50;;
64037;SDS011;54641;50.168;8.492;2023-04-24T17:12:52;6.60;;;4.10;;
64037;SDS011;54641;50.168;8.492;2023-04-24T17:15:23;6.80;;;4.00;;
64037;SDS011;54641;50.168;8.492;2023-04-24T17:18:04;6.50;;;3.50;;
64037;SDS011;54641;50.168;8.492;2023-04-24T17:20:35;6.10;;;3.90;;
64037;SDS011;54641;50.168;8.492;2023-04-24T17:23:06;5.20;;;3.60;;
64037;SDS011;54641;50.168;8.492;2023-04-24T17:25:41;5.90;;;4.00;;
64037;SDS011;54641;50.168;8.492;2023-04-24T17:28:14;7.80;;;4.40;;
64037;SDS011;54641;50.168;8.492;2023-04-24T17:30:48;7.90;;;4.30;;
64037;SDS011;54641;50.168;8.492;2023-04-24T17:33:22;6.20;;;4.20;;
64037;SDS011;54641;50.168;8.492;2023-04-24T17:35:53;6.80;;;4.00;;
64037;SDS011;54641;50.168;8.492;2023-04-24T17:38:24;5.30;;;3.80;;
64037;SDS011;54641;50.168;8.492;2023-04-24T17:40:55;7.10;;;4.20;;
64037;SDS011;54641;50.168;8.492;2023-04-24T17:43:27;8.50;;;4.00;;
64037;SDS011;54641;50.168;8.492;2023-04-24T17:45:57;6.50;;;4.00;;
64037;SDS011;54641;50.168;8.492;2023-04-24T17:48:28;4.50;;;3.30;;
64037;SDS011;54641;50.168;8.492;2023-04-24T17:50:58;6.80;;;3.90;;
64037;SDS011;54641;50.168;8.492;2023-04-24T17:53:29;7.90;;;4.30;;
64037;SDS011;54641;50.168;8.492;2023-04-24T17:56:00;5.30;;;3.60;;
64037;SDS011;54641;50.168;8.492;2023-04-24T17:58:31;7.60;;;3.80;;
64037;SDS011;54641;50.168;8.492;2023-04-24T18:01:02;4.60;;;3.30;;
64037;SDS011;54641;50.168;8.492;2023-04-24T18:03:33;6.50;;;3.70;;
64037;SDS011;54641;50.168;8.492;2023-04-24T18:06:05;6.40;;;3.80;;
64037;SDS011;54641;50.168;8.492;2023-04-24T18:08:37;6.30;;;4.10;;
64037;SDS011;54641;50.168;8.492;2023-04-24T18:11:08;6.40;;;4.40;;
64037;SDS011;54641;50.168;8.492;2023-04-24T18:13:38;5.80;;;4.40;;
64037;SDS011;54641;50.168;8.492;2023-04-24T18:16:09;8.50;;;4.80;;
64037;SDS011;54641;50.168;8.492;2023-04-24T18:18:39;5.60;;;4.00;;
64037;SDS011;54641;50.168;8.492;2023-04-24T18:21:10;7.20;;;4.10;;
64037;SDS011;54641;50.168;8.492;2023-04-24T18:23:41;6.10;;;4.10;;
64037;SDS011;54641;50.168;8.492;2023-04-24T18:26:12;10.10;;;4.00;;
64037;SDS011;54641;50.168;8.492;2023-04-24T18:28:43;6.70;;;3.70;;
64037;SDS011;54641;50.168;8.492;2023-04-24T18:31:14;7.70;;;4.30;;
64037;SDS011;54641;50.168;8.492;2023-04-24T18:33:45;5.80;;;4.20;;
64037;SDS011;54641;50.168;8.492;2023-04-24T18:36:16;6.50;;;4.30;;
64037;SDS011;54641;50.168;8.492;2023-04-24T18:38:46;7.10;;;4.20;;
64037;SDS011;54641;50.168;8.492;2023-04-24T18:41:18;8.70;;;4.70;;
64037;SDS011;54641;50.168;8.492;2023-04-24T18:43:48;6.40;;;3.90;;
64037;SDS011;54641;50.168;8.492;2023-04-24T18:46:19;6.60;;;4.30;;
64037;SDS011;54641;50.168;8.492;2023-04-24T18:48:50;9.10;;;4.90;;
64037;SDS011;54641;50.168;8.492;2023-04-24T18:51:20;5.30;;;3.70;;
64037;SDS011;54641;50.168;8.492;2023-04-24T18:53:51;7.50;;;5.30;;
64037;SDS011;54641;50.168;8.492;2023-04-24T18:56:21;6.00;;;4.10;;
64037;SDS011;54641;50.168;8.492;2023-04-24T18:58:51;7.20;;;4.60;;
64037;SDS011;54641;50.168;8.492;2023-04-24T19:01:22;7.50;;;4.80;;
64037;SDS011;54641;50.168;8.492;2023-04-24T19:03:52;6.10;;;4.10;;
64037;SDS011;54641;50.168;8.492;2023-04-24T19:06:23;7.50;;;4.20;;
64037;SDS011;54641;50.168;8.492;2023-04-24T19:08:54;7.70;;;4.00;;
64037;SDS011;54641;50.168;8.492;2023-04-24T19:11:24;7.90;;;4.10;;
64037;SDS011;54641;50.168;8.492;2023-04-24T19:13:54;6.70;;;4.10;;
64037;SDS011;54641;50.168;8.492;2023-04-24T19:16:29;5.60;;;3.60;;
64037;SDS011;54641;50.168;8.492;2023-04-24T19:18:59;7.10;;;4.30;;
64037;SDS011;54641;50.168;8.492;2023-04-24T19:21:32;7.70;;;4.20;;
64037;SDS011;54641;50.168;8.492;2023-04-24T19:24:02;7.80;;;4.70;;
64037;SDS011;54641;50.168;8.492;2023-04-24T19:26:33;6.50;;;4.70;;
64037;SDS011;54641;50.168;8.492;2023-04-24T19:29:04;7.40;;;4.50;;
64037;SDS011;54641;50.168;8.492;2023-04-24T19:31:34;7.40;;;4.90;;
64037;SDS011;54641;50.168;8.492;2023-04-24T19:34:04;8.70;;;5.20;;
64037;SDS011;54641;50.168;8.492;2023-04-24T19:36:35;10.00;;;5.20;;
64037;SDS011;54641;50.168;8.492;2023-04-24T19:39:05;9.30;;;5.60;;
64037;SDS011;54641;50.168;8.492;2023-04-24T19:41:36;8.70;;;5.00;;
64037;SDS011;54641;50.168;8.492;2023-04-24T19:44:06;8.30;;;5.40;;
64037;SDS011;54641;50.168;8.492;2023-04-24T19:46:37;7.70;;;5.50;;
64037;SDS011;54641;50.168;8.492;2023-04-24T19:49:07;8.10;;;5.40;;
64037;SDS011;54641;50.168;8.492;2023-04-24T19:51:38;9.20;;;5.40;;
64037;SDS011;54641;50.168;8.492;2023-04-24T19:54:09;6.80;;;4.40;;
64037;SDS011;54641;50.168;8.492;2023-04-24T19:56:39;6.30;;;4.30;;
64037;SDS011;54641;50.168;8.492;2023-04-24T19:59:09;7.00;;;4.80;;
64037;SDS011;54641;50.168;8.492;2023-04-24T20:01:40;6.70;;;4.20;;
64037;SDS011;54641;50.168;8.492;2023-04-24T20:04:10;6.60;;;4.80;;
64037;SDS011;54641;50.168;8.492;2023-04-24T20:06:41;6.90;;;4.50;;
64037;SDS011;54641;50.168;8.492;2023-04-24T20:09:12;7.10;;;4.90;;
64037;SDS011;54641;50.168;8.492;2023-04-24T20:11:42;7.00;;;4.60;;
64037;SDS011;54641;50.168;8.492;2023-04-24T20:14:13;7.40;;;4.40;;
64037;SDS011;54641;50.168;8.492;2023-04-24T20:16:43;6.70;;;4.20;;
64037;SDS011;54641;50.168;8.492;2023-04-24T20:19:13;7.50;;;4.30;;
64037;SDS011;54641;50.168;8.492;2023-04-24T20:21:44;6.40;;;4.00;;
64037;SDS011;54641;50.168;8.492;2023-04-24T20:24:14;6.60;;;4.20;;
64037;SDS011;54641;50.168;8.492;2023-04-24T20:26:45;6.60;;;4.00;;
64037;SDS011;54641;50.168;8.492;2023-04-24T20:29:15;8.00;;;4.90;;
64037;SDS011;54641;50.168;8.492;2023-04-24T20:31:45;7.40;;;4.70;;
64037;SDS011;54641;50.168;8.492;2023-04-24T20:34:16;7.40;;;4.70;;
64037;SDS011;54641;50.168;8.492;2023-04-24T20:36:46;6.40;;;4.50;;
64037;SDS011;54641;50.168;8.492;2023-04-24T20:39:17;6.30;;;4.30;;
64037;SDS011;54641;50.168;8.492;2023-04-24T20:41:47;6.10;;;4.10;;
64037;SDS011;54641;50.168;8.492;2023-04-24T20:44:17;7.00;;;4.20;;
64037;SDS011;54641;50.168;8.492;2023-04-24T20:46:48;6.40;;;4.40;;
64037;SDS011;54641;50.168;8.492;2023-04-24T20:49:18;8.00;;;4.70;;
64037;SDS011;54641;50.168;8.492;2023-04-24T20:51:49;7.40;;;4.40;;
64037;SDS011;54641;50.168;8.492;2023-04-24T20:54:19;8.20;;;5.40;;
64037;SDS011;54641;50.168;8.492;2023-04-24T20:56:49;6.50;;;4.20;;
64037;SDS011;54641;50.168;8.492;2023-04-24T20:59:20;7.30;;;5.00;;
64037;SDS011;54641;50.168;8.492;2023-04-24T21:01:50;7.50;;;4.90;;
64037;SDS011;54641;50.168;8.492;2023-04-24T21:04:20;7.90;;;4.50;;
64037;SDS011;54641;50.168;8.492;2023-04-24T21:06:51;8.90;;;5.10;;
64037;SDS011;54641;50.168;8.492;2023-04-24T21:09:21;7.70;;;5.30;;